Time;durP1;ratioP1;P1;durP2;ratioP2;P2;SDS_P1;SDS_P2;PMS_P1;PMS_P2;Temp;Humidity;BMP_temperature;BMP_pressure;BME280_temperature;BME280_humidity;BME280_pressure;Samples;Min_cycle;Max_cycle;Signal;HPM_P1;HPM_P2
2023/02/11 00:00:41;;;;;;;65.13;35.53;;;;;;;8.27;66.95;101398.78;5029964;28;20054;-80
2023/02/11 00:03:08;;;;;;;61.13;33.33;;;;;;;8.31;66.65;101400.44;5030128;28;20500;-80
2023/02/11 00:05:34;;;;;;;63.67;34.72;;;;;;;8.30;66.30;101412.69;5012493;28;20104;-80
2023/02/11 00:08:01;;;;;;;60.45;33.83;;;;;;;8.30;66.60;101393.47;5030184;28;20458;-80
2023/02/11 00:10:27;;;;;;;60.28;34.80;;;;;;;8.31;66.60;101397.81;5012481;28;20050;-80
2023/02/11 00:12:53;;;;;;;66.45;34.35;;;;;;;8.30;66.43;101396.94;5030207;28;20156;-81
2023/02/11 00:15:20;;;;;;;67.13;34.15;;;;;;;8.30;66.46;101402.19;5012576;28;20463;-80
2023/02/11 00:17:46;;;;;;;68.50;35.78;;;;;;;8.30;66.74;101390.84;5030055;28;20041;-81
2023/02/11 00:20:13;;;;;;;63.60;34.95;;;;;;;8.28;66.57;101393.50;5029890;28;20045;-80
2023/02/11 00:22:39;;;;;;;58.25;33.97;;;;;;;8.27;66.78;101381.28;5029996;28;20550;-80
2023/02/11 00:25:06;;;;;;;56.08;33.33;;;;;;;8.26;67.01;101379.53;5029888;28;20077;-80
2023/02/11 00:27:33;;;;;;;60.05;32.53;;;;;;;8.27;66.85;101383.03;5029804;28;20057;-80
2023/02/11 00:30:01;;;;;;;62.03;32.28;;;;;;;8.27;66.67;101375.16;5030083;28;20050;-80
2023/02/11 00:32:27;;;;;;;60.45;32.17;;;;;;;8.29;66.78;101396.97;5029981;28;20050;-80
2023/02/11 00:34:54;;;;;;;53.65;31.42;;;;;;;8.29;66.95;101389.97;5012388;28;20053;-80
2023/02/11 00:37:21;;;;;;;61.08;32.42;;;;;;;8.31;66.63;101390.81;5012419;28;20057;-80
2023/02/11 00:39:48;;;;;;;56.35;32.97;;;;;;;8.33;67.00;101403.88;5033572;28;20046;-80
2023/02/11 00:42:15;;;;;;;58.67;32.50;;;;;;;8.33;67.08;101393.38;5016051;28;20902;-80
2023/02/11 00:44:42;;;;;;;60.22;29.52;;;;;;;8.32;67.04;101383.78;5033621;28;20060;-81
2023/02/11 00:47:08;;;;;;;55.95;31.75;;;;;;;8.33;66.79;101388.13;5015803;28;20045;-80
2023/02/11 00:49:35;;;;;;;55.50;31.33;;;;;;;8.33;67.10;101390.75;5033475;28;20053;-80
2023/02/11 00:52:02;;;;;;;55.35;31.77;;;;;;;8.33;66.98;101388.13;5033443;28;20096;-80
2023/02/11 00:54:29;;;;;;;62.60;32.75;;;;;;;8.34;66.84;101405.63;5033409;28;20500;-80
2023/02/11 00:56:55;;;;;;;53.95;30.17;;;;;;;8.34;67.03;101405.63;5033032;28;20053;-81
2023/02/11 00:59:21;;;;;;;54.33;30.67;;;;;;;8.35;67.06;101420.47;5033367;28;20049;-81
2023/02/11 01:01:48;;;;;;;50.90;31.30;;;;;;;8.35;66.78;101423.94;5033563;28;20431;-80
2023/02/11 01:04:15;;;;;;;52.85;30.13;;;;;;;8.37;67.10;101431.78;5033377;28;20077;-80
2023/02/11 01:06:41;;;;;;;52.05;29.08;;;;;;;8.38;67.14;101415.16;5032999;28;20049;-80
2023/02/11 01:09:08;;;;;;;57.40;31.92;;;;;;;8.38;66.95;101411.66;5032963;28;20068;-80
2023/02/11 01:11:34;;;;;;;61.83;31.30;;;;;;;8.37;67.05;101394.22;5033203;28;20056;-80
2023/02/11 01:14:01;;;;;;;59.35;30.45;;;;;;;8.37;67.19;101388.97;5033126;28;20060;-80
2023/02/11 01:16:28;;;;;;;59.00;32.67;;;;;;;8.37;67.15;101381.09;5032864;28;20416;-80
2023/02/11 01:18:54;;;;;;;59.42;32.72;;;;;;;8.36;67.45;101380.22;5032838;28;20057;-80
2023/02/11 01:21:21;;;;;;;52.70;30.55;;;;;;;8.37;66.92;101386.34;5015266;28;20049;-80
2023/02/11 01:23:47;;;;;;;56.60;31.65;;;;;;;8.35;67.13;101389.00;5032727;28;20511;-80
2023/02/11 01:26:14;;;;;;;55.58;30.67;;;;;;;8.34;67.12;101385.50;5015141;28;20045;-80
2023/02/11 01:28:40;;;;;;;51.08;30.00;;;;;;;8.35;67.05;101391.63;5032660;28;20045;-80
2023/02/11 01:31:07;;;;;;;58.20;32.28;;;;;;;8.35;67.31;101387.22;5032674;28;20466;-80
2023/02/11 01:33:33;;;;;;;53.33;30.73;;;;;;;8.36;67.56;101388.09;5032689;28;20072;-80
2023/02/11 01:36:05;;;;;;;51.92;31.13;;;;;;;8.34;67.71;101385.50;5032615;28;20054;-81
2023/02/11 01:38:32;;;;;;;51.78;29.52;;;;;;;8.38;67.12;101381.06;5032390;28;20052;-80
2023/02/11 01:41:07;;;;;;;49.55;28.60;;;;;;;8.35;67.56;101379.34;5032641;28;20053;-80
2023/02/11 01:43:37;;;;;;;54.80;30.88;;;;;;;8.38;67.43;101367.94;5014766;28;20049;-80
2023/02/11 01:46:16;;;;;;;53.42;30.20;;;;;;;8.34;67.96;101369.75;5032467;28;20057;-80
2023/02/11 01:48:56;;;;;;;53.95;31.75;;;;;;;8.34;68.26;101374.16;5014461;28;20132;-80
2023/02/11 01:51:31;;;;;;;55.72;30.05;;;;;;;8.34;67.77;101367.13;5032332;28;20563;-80
2023/02/11 01:59:39;;;;;;;46.33;26.60;;;;;;;8.35;67.75;101373.25;5032245;28;20049;-80
2023/02/11 02:02:10;;;;;;;54.03;28.92;;;;;;;8.35;67.79;101368.84;5014525;28;20523;-79
2023/02/11 02:04:52;;;;;;;52.80;27.55;;;;;;;8.34;68.33;101359.25;5032056;28;20053;-80
2023/02/11 02:07:48;;;;;;;55.33;30.45;;;;;;;8.34;68.47;101361.03;5032005;28;20056;-80
2023/02/11 02:10:19;;;;;;;48.55;26.35;;;;;;;8.36;67.74;101361.84;5023412;28;20049;-80
2023/02/11 02:12:46;;;;;;;50.65;26.70;;;;;;;8.39;67.40;101355.66;5032032;28;20107;-80
2023/02/11 02:15:19;;;;;;;45.72;24.90;;;;;;;8.37;67.95;101354.84;5031732;28;20388;-80
2023/02/11 02:17:57;;;;;;;51.25;26.75;;;;;;;8.37;67.95;101341.72;5031696;28;20711;-80
2023/02/11 02:21:07;;;;;;;50.72;25.33;;;;;;;8.35;68.23;101328.63;5014376;28;20045;-80
2023/02/11 02:24:11;;;;;;;42.47;25.13;;;;;;;8.37;68.33;101334.69;4994799;28;20045;-81
2023/02/11 02:26:52;;;;;;;46.10;24.98;;;;;;;8.38;68.16;101335.56;5031779;28;20045;-80
2023/02/11 02:29:42;;;;;;;49.13;24.13;;;;;;;8.38;67.49;101340.81;5013867;28;20530;-80
2023/02/11 02:32:39;;;;;;;46.03;24.00;;;;;;;8.35;68.12;101341.75;5014104;28;20495;-80
2023/02/11 02:35:09;;;;;;;48.25;25.13;;;;;;;8.36;67.87;101338.22;5031326;28;20519;-80
2023/02/11 02:37:46;;;;;;;44.40;25.10;;;;;;;8.33;68.09;101343.53;5031457;28;20049;-80
2023/02/11 02:40:20;;;;;;;43.40;23.85;;;;;;;8.32;67.95;101347.94;5031451;28;20103;-80
2023/02/11 02:42:47;;;;;;;42.25;23.48;;;;;;;8.33;67.64;101349.66;5013771;28;20049;-80
2023/02/11 02:45:14;;;;;;;41.75;22.70;;;;;;;8.33;67.41;101351.41;5031349;28;20053;-80
2023/02/11 02:47:41;;;;;;;42.50;24.15;;;;;;;8.33;67.53;101339.16;5031364;28;20099;-80
2023/02/11 02:50:08;;;;;;;40.50;23.25;;;;;;;8.31;67.96;101348.84;5031208;28;20056;-80
2023/02/11 02:53:13;;;;;;;40.08;22.13;;;;;;;8.30;68.55;101347.09;5031416;28;20057;-80
2023/02/11 02:55:59;;;;;;;40.35;22.27;;;;;;;8.32;68.39;101357.56;5030999;28;20565;-80
2023/02/11 02:58:42;;;;;;;42.10;22.90;;;;;;;8.32;68.13;101352.31;5013525;28;20049;-80
2023/02/11 03:01:27;;;;;;;36.33;20.65;;;;;;;8.34;68.42;101342.66;5097608;23;20049;-79
2023/02/11 03:04:02;;;;;;;46.90;20.45;;;;;;;8.38;67.52;101353.94;4991691;28;20487;-79
2023/02/11 03:06:33;;;;;;;35.08;21.55;;;;;;;8.39;67.59;101340.78;4991869;28;20053;-79
2023/02/11 03:09:11;;;;;;;38.72;21.42;;;;;;;8.36;68.38;101353.97;4991961;28;20475;-79
2023/02/11 03:11:39;;;;;;;36.20;20.60;;;;;;;8.40;67.69;101349.50;4991966;28;20053;-79
2023/02/11 03:14:09;;;;;;;37.03;19.50;;;;;;;8.40;67.46;101347.75;4992256;28;20042;-79
2023/02/11 03:16:38;;;;;;;35.88;20.33;;;;;;;8.39;67.79;101335.53;4991782;28;20050;-79
2023/02/11 03:19:14;;;;;;;41.20;20.98;;;;;;;8.37;67.96;101344.34;4992069;28;20053;-79
2023/02/11 03:21:42;;;;;;;38.55;20.95;;;;;;;8.41;67.82;101335.50;4991850;28;20047;-79
2023/02/11 03:24:16;;;;;;;37.22;19.02;;;;;;;8.40;68.23;101341.63;4991965;28;20061;-79
2023/02/11 03:26:49;;;;;;;36.15;18.70;;;;;;;8.41;67.82;101338.13;4991515;28;20368;-79
2023/02/11 03:29:25;;;;;;;37.65;19.73;;;;;;;8.41;67.96;101330.28;4991849;28;20418;-80
2023/02/11 03:32:19;;;;;;;33.00;19.25;;;;;;;8.38;68.16;101331.19;4991517;28;20467;-80
2023/02/11 03:35:02;;;;;;;40.13;18.33;;;;;;;8.39;68.35;101332.94;4991488;28;20085;-79
2023/02/11 03:37:42;;;;;;;;;;;;;;;8.41;68.36;101322.41;4991899;28;20050;-79
2023/02/11 03:40:12;;;;;;;35.92;18.77;;;;;;;8.42;67.47;101317.13;4991809;28;19925;-79
2023/02/11 03:42:43;;;;;;;38.03;19.77;;;;;;;8.38;67.85;101323.34;4991272;28;20050;-79
2023/02/11 03:45:14;;;;;;;40.40;18.35;;;;;;;8.36;67.90;101314.63;4991188;28;20042;-79
2023/02/11 03:47:59;;;;;;;35.00;18.55;;;;;;;8.34;68.06;101319.91;4990928;28;20153;-79
2023/02/11 03:50:29;;;;;;;32.90;17.88;;;;;;;8.34;68.02;101329.53;4991622;28;20137;-79
2023/02/11 03:52:57;;;;;;;29.40;18.05;;;;;;;8.34;68.19;101340.03;4991454;28;20046;-79
2023/02/11 03:55:25;;;;;;;33.35;18.02;;;;;;;8.35;68.19;101354.88;4991394;28;20047;-79
2023/02/11 03:57:52;;;;;;;34.33;17.50;;;;;;;8.34;68.09;101356.63;4989840;28;20125;-79
2023/02/11 04:00:18;;;;;;;36.78;18.95;;;;;;;8.34;68.16;101348.75;4991113;28;20058;-79
2023/02/11 04:02:45;;;;;;;33.03;17.45;;;;;;;8.35;68.42;101336.50;4991570;28;20049;-79
2023/02/11 04:05:14;;;;;;;30.35;18.77;;;;;;;8.33;68.30;101331.28;4990985;28;20050;-79
2023/02/11 04:07:41;;;;;;;30.00;16.27;;;;;;;8.34;68.30;101335.63;4991235;28;20076;-79
2023/02/11 04:10:08;;;;;;;37.63;17.35;;;;;;;8.35;68.43;101326.00;4989699;28;20061;-79
2023/02/11 04:12:34;;;;;;;38.05;18.45;;;;;;;8.33;68.47;101327.78;4991801;28;20042;-79
2023/02/11 04:15:01;;;;;;;33.97;17.42;;;;;;;8.32;68.31;101336.56;4995148;28;20042;-79
2023/02/11 04:17:27;;;;;;;34.67;17.35;;;;;;;8.32;68.50;101333.94;4995198;28;20127;-79
2023/02/11 04:19:54;;;;;;;32.90;16.98;;;;;;;8.32;68.64;101329.56;4995050;28;20046;-79
2023/02/11 04:22:20;;;;;;;32.38;16.02;;;;;;;8.31;68.67;101321.72;4995255;28;20046;-79
2023/02/11 04:24:47;;;;;;;31.67;17.52;;;;;;;8.32;68.65;101324.31;4994910;28;20150;-79
2023/02/11 04:27:13;;;;;;;30.55;16.73;;;;;;;8.32;68.47;101320.81;4994810;28;20042;-79
2023/02/11 04:29:40;;;;;;;32.80;16.52;;;;;;;8.33;68.56;101323.41;4994848;28;20050;-79
2023/02/11 04:32:07;;;;;;;38.25;18.02;;;;;;;8.32;68.57;101318.22;4995069;28;20069;-79
2023/02/11 04:34:33;;;;;;;35.58;16.85;;;;;;;8.33;68.44;101319.91;4993700;28;20089;-79
2023/02/11 04:37:00;;;;;;;34.00;17.70;;;;;;;8.33;68.55;101322.53;4994527;28;20086;-79
2023/02/11 04:39:26;;;;;;;29.95;16.17;;;;;;;8.34;68.63;101327.75;4994799;28;20129;-79
2023/02/11 04:41:53;;;;;;;29.67;16.50;;;;;;;8.35;68.54;101336.50;4994924;28;20082;-79
2023/02/11 04:44:19;;;;;;;32.20;16.98;;;;;;;8.36;68.49;101338.22;4994798;28;20053;-79
2023/02/11 04:46:46;;;;;;;35.08;16.63;;;;;;;8.37;68.46;101339.09;4994692;28;20046;-79
2023/02/11 04:49:14;;;;;;;30.33;15.65;;;;;;;8.37;68.50;101329.44;4994639;28;20125;-80
2023/02/11 04:51:42;;;;;;;26.67;15.73;;;;;;;8.37;68.56;101326.81;4994825;28;20395;-80
2023/02/11 04:54:08;;;;;;;24.65;15.73;;;;;;;8.37;68.74;101331.22;4994442;28;20141;-80
2023/02/11 04:56:35;;;;;;;36.20;18.23;;;;;;;8.37;68.79;101345.19;4994251;28;20056;-80
2023/02/11 04:59:01;;;;;;;36.55;18.38;;;;;;;8.36;68.71;101338.22;4993355;28;20053;-79
2023/02/11 05:01:28;;;;;;;36.38;18.17;;;;;;;8.35;68.80;101339.97;4993096;28;20140;-80
2023/02/11 05:03:55;;;;;;;37.40;17.77;;;;;;;8.34;68.87;101334.78;4994622;28;20065;-80
2023/02/11 05:06:22;;;;;;;36.08;17.25;;;;;;;8.34;68.70;101342.66;4994150;28;20505;-79
2023/02/11 05:08:48;;;;;;;30.88;16.98;;;;;;;8.33;68.64;101339.16;4994011;28;20133;-80
2023/02/11 05:11:17;;;;;;;28.67;16.23;;;;;;;8.32;68.63;101333.94;4994396;28;20100;-79
2023/02/11 05:13:45;;;;;;;29.60;16.75;;;;;;;8.34;68.96;101337.41;4994339;28;20050;-79
2023/02/11 05:16:12;;;;;;;30.35;16.45;;;;;;;8.32;68.60;101336.56;4993834;28;20136;-79
2023/02/11 05:18:40;;;;;;;35.88;17.17;;;;;;;8.31;68.68;101346.22;4985960;28;20101;-80
2023/02/11 05:21:16;;;;;;;30.35;17.10;;;;;;;8.29;69.40;101339.25;4994113;28;20046;-79
2023/02/11 05:23:44;;;;;;;33.17;17.67;;;;;;;8.32;68.87;101347.06;4993669;28;20065;-80
2023/02/11 05:26:11;;;;;;;38.55;18.60;;;;;;;8.32;68.76;101341.81;4994038;28;20052;-79
2023/02/11 05:28:38;;;;;;;35.47;17.27;;;;;;;8.30;68.87;101328.72;4993918;28;20042;-80
2023/02/11 05:31:05;;;;;;;30.23;16.42;;;;;;;8.32;68.80;101326.06;4992448;28;20428;-79
2023/02/11 05:33:32;;;;;;;35.03;17.77;;;;;;;8.30;69.27;101333.97;4993817;28;20081;-79
2023/02/11 05:35:59;;;;;;;31.80;16.67;;;;;;;8.29;68.73;101337.50;4993629;28;20060;-80
2023/02/11 05:38:26;;;;;;;37.17;17.83;;;;;;;8.30;69.00;101347.09;4993759;28;20046;-79
2023/02/11 05:40:54;;;;;;;30.73;16.40;;;;;;;8.32;68.97;101339.19;4993780;28;20046;-79
2023/02/11 05:43:21;;;;;;;33.80;17.05;;;;;;;8.32;68.91;101333.94;4993741;28;20121;-79
2023/02/11 05:45:47;;;;;;;39.85;18.20;;;;;;;8.31;69.28;101330.47;4993569;28;20128;-79
2023/02/11 05:48:14;;;;;;;34.80;17.55;;;;;;;8.32;69.28;101334.81;4993365;28;20547;-79
2023/02/11 05:50:41;;;;;;;34.75;17.02;;;;;;;8.32;68.99;101334.81;4993397;28;20046;-79
2023/02/11 05:53:08;;;;;;;39.40;18.42;;;;;;;8.31;69.21;101332.22;4993593;28;20423;-79
2023/02/11 05:55:34;;;;;;;27.30;17.33;;;;;;;8.30;69.50;101327.88;4992932;28;20178;-78
2023/02/11 05:58:01;;;;;;;33.95;18.08;;;;;;;8.30;69.31;101328.72;4993075;28;20086;-79
2023/02/11 06:00:27;;;;;;;36.17;18.00;;;;;;;8.28;69.56;101325.28;4993188;28;20141;-80
2023/02/11 06:02:54;;;;;;;39.83;18.08;;;;;;;8.29;69.54;101328.75;4992913;28;20097;-79
2023/02/11 06:05:21;;;;;;;34.45;17.90;;;;;;;8.29;69.65;101331.38;4991343;28;20462;-79
2023/02/11 06:07:47;;;;;;;33.75;17.50;;;;;;;8.30;69.32;101333.13;4992884;28;20398;-78
2023/02/11 06:10:14;;;;;;;34.15;18.25;;;;;;;8.30;69.83;101327.88;4993119;28;20054;-79
2023/02/11 06:12:40;;;;;;;34.95;18.05;;;;;;;8.31;69.48;101313.88;4992850;28;20054;-79
2023/02/11 06:15:07;;;;;;;45.58;19.10;;;;;;;8.31;69.27;101324.34;4992871;28;20047;-79
2023/02/11 06:17:35;;;;;;;45.55;19.88;;;;;;;8.30;69.70;101320.84;4991675;28;20051;-79
2023/02/11 06:20:05;;;;;;;36.78;18.70;;;;;;;8.30;69.62;101327.88;4991844;28;20085;-79
2023/02/11 06:22:31;;;;;;;34.65;18.55;;;;;;;8.30;69.55;101327.88;4993027;28;20046;-79
2023/02/11 06:25:00;;;;;;;39.20;18.95;;;;;;;8.29;69.67;101332.25;4992777;28;20053;-79
2023/02/11 06:27:28;;;;;;;35.78;18.65;;;;;;;8.29;69.48;101315.63;4992838;28;20046;-80
2023/02/11 06:29:55;;;;;;;41.30;19.17;;;;;;;8.28;69.83;101330.53;4992694;28;20044;-80
2023/02/11 06:32:21;;;;;;;41.40;19.42;;;;;;;8.28;69.97;101340.16;4992975;28;20054;-80
2023/02/11 06:35:08;;;;;;;43.97;20.38;;;;;;;8.28;70.08;101337.53;4992326;28;20418;-80
2023/02/11 06:37:37;;;;;;;43.38;18.98;;;;;;;8.29;69.96;101318.25;4992623;28;20046;-80
2023/02/11 06:40:04;;;;;;;38.65;18.08;;;;;;;8.29;69.92;101332.25;4992518;28;20398;-80
2023/02/11 06:42:30;;;;;;;38.97;18.23;;;;;;;8.30;69.89;101328.72;4991477;28;20100;-81
2023/02/11 06:44:57;;;;;;;41.20;19.05;;;;;;;8.31;69.88;101321.72;4992592;28;20046;-81
2023/02/11 06:47:24;;;;;;;40.40;18.63;;;;;;;8.32;69.98;101326.06;4992486;28;20043;-81
2023/02/11 06:49:50;;;;;;;37.92;18.23;;;;;;;8.33;70.06;101325.16;4992449;28;20054;-80
2023/02/11 06:52:17;;;;;;;36.80;18.73;;;;;;;8.32;69.89;101332.19;4992390;28;20054;-80
2023/02/11 06:54:43;;;;;;;40.90;19.75;;;;;;;8.32;70.10;101347.06;4992347;28;20038;-80
2023/02/11 06:57:10;;;;;;;41.78;20.13;;;;;;;8.33;70.25;101328.66;4991956;28;20050;-81
2023/02/11 06:59:37;;;;;;;43.10;21.08;;;;;;;8.32;69.91;101326.06;4984022;28;20051;-80
2023/02/11 07:02:03;;;;;;;39.33;18.75;;;;;;;8.33;69.90;101322.53;4991849;28;20141;-80
2023/02/11 07:04:30;;;;;;;40.70;20.65;;;;;;;8.33;69.99;101317.28;4991765;28;20412;-80
2023/02/11 07:06:56;;;;;;;38.72;19.83;;;;;;;8.33;70.48;101333.03;4991396;28;20851;-80
2023/02/11 07:09:23;;;;;;;40.60;19.65;;;;;;;8.33;69.92;101331.28;4991434;28;20052;-80
2023/02/11 07:11:49;;;;;;;34.25;19.77;;;;;;;8.33;70.26;101323.41;4991514;28;20418;-80
2023/02/11 07:14:16;;;;;;;38.90;20.23;;;;;;;8.34;70.50;101317.28;4991981;28;20042;-81
2023/02/11 07:16:42;;;;;;;41.15;21.52;;;;;;;8.35;70.43;101321.63;4991880;28;20046;-81
2023/02/11 07:19:09;;;;;;;35.75;19.85;;;;;;;8.35;70.37;101324.25;4991887;28;20042;-80
2023/02/11 07:21:36;;;;;;;39.08;19.52;;;;;;;8.38;70.46;101325.97;4991904;28;20046;-81
2023/02/11 07:24:06;;;;;;;42.30;21.10;;;;;;;8.35;70.81;101324.25;4991777;28;20057;-80
2023/02/11 07:26:36;;;;;;;39.60;19.73;;;;;;;8.36;70.40;101332.97;4994179;28;20046;-80
2023/02/11 07:29:06;;;;;;;42.05;19.30;;;;;;;8.38;70.45;101338.19;5011450;28;20442;-81
2023/02/11 07:31:32;;;;;;;34.30;19.77;;;;;;;8.37;70.48;101353.06;5011356;28;20049;-80
2023/02/11 07:34:02;;;;;;;42.40;21.42;;;;;;;8.36;71.08;101356.59;5011373;28;20096;-81
2023/02/11 07:36:30;;;;;;;45.15;20.77;;;;;;;8.37;70.54;101344.34;5011076;28;20144;-80
2023/02/11 07:38:57;;;;;;;40.70;21.77;;;;;;;8.37;70.64;101355.69;5010966;28;20395;-80
2023/02/11 07:41:24;;;;;;;40.65;20.67;;;;;;;8.36;70.45;101359.22;4993627;28;20387;-80
2023/02/11 07:43:51;;;;;;;53.72;24.08;;;;;;;8.35;70.52;101363.59;4993750;28;20042;-80
2023/02/11 07:46:20;;;;;;;42.38;20.83;;;;;;;8.37;70.60;101362.72;5010913;28;20052;-81
2023/02/11 07:48:47;;;;;;;44.20;22.23;;;;;;;8.35;70.43;101363.59;5011014;28;20050;-80
2023/02/11 07:51:19;;;;;;;41.17;21.38;;;;;;;8.34;70.63;101361.88;5011017;28;20727;-81
2023/02/11 07:53:47;;;;;;;44.87;21.93;;;;;;;8.35;70.55;101357.50;5011124;28;20557;-81
2023/02/11 07:56:15;;;;;;;47.85;21.75;;;;;;;8.33;70.87;101352.28;5011096;28;20352;-80
2023/02/11 07:58:42;;;;;;;48.53;23.10;;;;;;;8.34;70.75;101358.41;5010962;28;20125;-81
2023/02/11 08:01:24;;;;;;;44.65;21.35;;;;;;;8.31;71.81;101366.34;5011095;28;20052;-80
2023/02/11 08:03:52;;;;;;;48.15;23.55;;;;;;;8.33;70.77;101361.91;5011000;28;20041;-81
2023/02/11 08:06:20;;;;;;;54.15;23.85;;;;;;;8.30;71.29;101352.34;5010885;28;20057;-81
2023/02/11 08:08:48;;;;;;;46.20;22.42;;;;;;;8.32;70.95;101365.44;5011119;28;20050;-80
2023/02/11 08:11:17;;;;;;;45.65;23.33;;;;;;;8.30;71.47;101372.47;5010898;28;20496;-80
2023/02/11 08:13:44;;;;;;;42.88;23.70;;;;;;;8.32;71.00;101368.06;5010946;28;20046;-81
2023/02/11 08:16:26;;;;;;;56.28;25.58;;;;;;;8.29;72.33;101375.97;5010716;28;20052;-81
2023/02/11 08:18:56;;;;;;;48.60;22.90;;;;;;;8.30;72.05;101378.56;5010757;28;20046;-81
2023/02/11 08:21:24;;;;;;;52.95;24.70;;;;;;;8.31;71.36;101382.94;5010879;28;20049;-80
2023/02/11 08:23:51;;;;;;;44.83;23.20;;;;;;;8.31;71.39;101366.34;5010905;28;20053;-81
2023/02/11 08:26:20;;;;;;;55.92;25.42;;;;;;;8.30;71.55;101373.31;5010648;28;20132;-80
2023/02/11 08:28:48;;;;;;;50.72;26.83;;;;;;;8.33;71.42;101372.41;5010501;28;20570;-81
2023/02/11 08:31:20;;;;;;;49.42;25.67;;;;;;;8.32;72.18;101368.06;5010654;28;20490;-81
2023/02/11 08:33:48;;;;;;;46.40;26.20;;;;;;;8.34;71.77;101366.28;5010751;28;20054;-81
2023/02/11 08:36:17;;;;;;;46.70;26.23;;;;;;;8.35;71.95;101374.09;5010634;28;20108;-80
2023/02/11 08:38:44;;;;;;;57.78;27.50;;;;;;;8.38;72.00;101373.19;5010560;28;20065;-81
2023/02/11 08:41:10;;;;;;;49.92;27.50;;;;;;;8.39;72.06;101372.28;4993217;28;20085;-81
2023/02/11 08:43:40;;;;;;;54.67;27.40;;;;;;;8.42;72.11;101372.22;5010630;28;20050;-80
2023/02/11 08:46:08;;;;;;;61.65;26.42;;;;;;;8.44;71.85;101383.53;5010591;28;20081;-80
2023/02/11 08:48:35;;;;;;;54.58;26.00;;;;;;;8.47;72.38;101386.09;5010526;28;20116;-80
2023/02/11 08:51:23;;;;;;;51.53;26.70;;;;;;;8.46;72.98;101400.09;5010590;28;20042;-80
2023/02/11 08:53:50;;;;;;;50.45;25.15;;;;;;;8.53;72.36;101403.50;5010783;28;20054;-81
2023/02/11 08:56:20;;;;;;;55.63;26.42;;;;;;;8.53;72.18;101403.50;5010493;28;20073;-80
2023/02/11 08:58:46;;;;;;;55.08;27.13;;;;;;;8.55;71.90;101399.09;5011286;28;20056;-81
2023/02/11 09:03:57;;;;;;;;;;;;;;;8.57;73.40;101404.31;5088889;22;20053;-80
2023/02/11 09:06:24;;;;;;;50.83;27.15;;;;;;;8.62;72.04;101418.19;5013940;28;19937;-79
2023/02/11 09:08:53;;;;;;;46.85;25.88;;;;;;;8.62;72.04;101417.31;5013682;28;20054;-80
2023/02/11 09:11:28;;;;;;;55.05;26.48;;;;;;;8.61;72.35;101416.47;5013686;28;20053;-79
2023/02/11 09:13:55;;;;;;;55.47;27.42;;;;;;;8.64;72.31;101420.78;5013866;28;20422;-80
2023/02/11 09:16:25;;;;;;;51.53;25.98;;;;;;;8.64;72.26;101426.91;5010122;28;20414;-79
2023/02/11 09:18:52;;;;;;;56.72;27.45;;;;;;;8.66;72.40;101427.72;5013154;28;20495;-81
2023/02/11 09:21:19;;;;;;;52.72;26.80;;;;;;;8.68;72.39;101435.56;5009761;28;20432;-79
2023/02/11 09:23:46;;;;;;;56.95;28.35;;;;;;;8.71;72.30;101448.63;5013697;28;20049;-79
2023/02/11 09:26:25;;;;;;;49.40;25.00;;;;;;;8.69;72.87;101455.66;5013007;28;20465;-78
2023/02/11 09:28:52;;;;;;;51.85;26.52;;;;;;;8.73;72.16;101454.69;5013156;28;20096;-81
2023/02/11 09:31:21;;;;;;;53.92;26.42;;;;;;;8.73;72.26;101457.31;5013670;28;20045;-79
2023/02/11 09:33:50;;;;;;;49.70;26.02;;;;;;;8.73;72.43;101460.81;5013335;28;20046;-79
2023/02/11 09:36:21;;;;;;;54.38;28.10;;;;;;;8.75;72.39;101457.28;5012822;28;20057;-78
2023/02/11 09:38:48;;;;;;;50.90;25.05;;;;;;;8.78;71.96;101459.88;5013130;28;20401;-79
2023/02/11 09:41:34;;;;;;;43.50;26.25;;;;;;;8.76;73.00;101459.91;5013292;28;20046;-79
2023/02/11 09:44:04;;;;;;;50.88;26.00;;;;;;;8.80;72.29;101469.44;5013370;28;20053;-79
2023/02/11 09:46:35;;;;;;;56.58;26.90;;;;;;;8.82;72.62;101480.75;5012466;28;20465;-80
2023/02/11 09:49:03;;;;;;;52.50;27.52;;;;;;;8.82;72.17;101477.28;5013038;28;20054;-79
2023/02/11 09:51:41;;;;;;;52.55;26.08;;;;;;;8.79;73.23;101485.22;5012914;28;20049;-79
2023/02/11 09:54:18;;;;;;;46.28;25.20;;;;;;;8.80;72.67;101486.94;5013300;28;20058;-81
2023/02/11 09:56:44;;;;;;;47.40;24.30;;;;;;;8.84;72.06;101493.84;5004223;28;20478;-78
2023/02/11 09:59:14;;;;;;;59.10;26.08;;;;;;;8.84;72.42;101499.09;5012680;28;20050;-79
2023/02/11 10:01:50;;;;;;;51.58;25.52;;;;;;;8.85;72.84;101495.56;5012669;28;20060;-79
2023/02/11 10:04:33;;;;;;;52.60;26.27;;;;;;;8.84;73.47;101504.34;5012457;28;20092;-80
2023/02/11 10:07:15;;;;;;;51.25;27.08;;;;;;;8.87;72.90;101501.69;5006406;28;20472;-79
2023/02/11 10:09:50;;;;;;;49.47;26.02;;;;;;;8.89;72.57;101499.88;5011896;28;20437;-79
2023/02/11 10:12:36;;;;;;;49.45;26.65;;;;;;;8.90;72.76;101509.47;5012240;28;20046;-80
2023/02/11 10:15:27;;;;;;;46.63;25.35;;;;;;;8.93;72.67;101519.06;5012625;28;20046;-80
2023/02/11 10:17:59;;;;;;;46.67;24.90;;;;;;;8.96;72.25;101518.97;5012353;28;20050;-80
2023/02/11 10:20:53;;;;;;;51.95;25.38;;;;;;;8.94;73.16;101511.13;5012709;28;20041;-79
2023/02/11 10:23:24;;;;;;;48.80;25.17;;;;;;;8.99;72.61;101522.41;5012673;28;20053;-79
2023/02/11 10:25:55;;;;;;;46.60;24.17;;;;;;;9.02;72.46;101531.13;5012508;28;20064;-81
2023/02/11 10:28:35;;;;;;;50.40;26.38;;;;;;;8.99;73.32;101538.19;5012253;28;20104;-79
2023/02/11 10:31:16;;;;;;;50.35;25.55;;;;;;;9.03;73.29;101541.59;5012321;28;20053;-79
2023/02/11 10:33:57;;;;;;;55.45;27.58;;;;;;;9.05;73.42;101544.19;5003778;28;20049;-81
2023/02/11 10:36:28;;;;;;;55.33;28.77;;;;;;;9.08;73.23;101533.63;5010888;28;20053;-81
2023/02/11 10:38:55;;;;;;;48.85;26.25;;;;;;;9.11;72.94;101526.53;5012319;28;20108;-79
2023/02/11 10:41:29;;;;;;;50.28;27.42;;;;;;;9.12;72.93;101530.88;5012463;28;20107;-81
2023/02/11 10:43:57;;;;;;;52.28;27.17;;;;;;;9.16;72.64;101534.28;5012312;28;20340;-79
2023/02/11 10:46:30;;;;;;;49.70;26.48;;;;;;;9.17;73.08;101530.78;5012118;28;20057;-79
2023/02/11 10:48:57;;;;;;;44.85;25.17;;;;;;;9.22;72.64;101536.81;5005428;28;20403;-80
2023/02/11 10:51:32;;;;;;;47.45;25.70;;;;;;;9.24;72.54;101532.34;5012255;28;20046;-79
2023/02/11 10:54:11;;;;;;;50.45;26.48;;;;;;;9.28;72.87;101519.16;5005652;28;20096;-80
2023/02/11 10:56:46;;;;;;;55.60;29.20;;;;;;;9.31;72.79;101526.97;5010556;28;20111;-81
2023/02/11 10:59:19;;;;;;;47.53;27.75;;;;;;;9.32;72.78;101532.22;5011770;28;20042;-80
2023/02/11 11:01:58;;;;;;;51.75;26.25;;;;;;;9.33;72.90;101525.16;5011831;28;20060;-79
2023/02/11 11:04:43;;;;;;;48.92;27.25;;;;;;;9.34;72.90;101534.78;5008726;28;20097;-80
2023/02/11 11:07:16;;;;;;;47.35;26.10;;;;;;;9.39;72.46;101540.81;5011622;28;20457;-79
2023/02/11 11:09:52;;;;;;;;;;;;;;;9.40;72.94;101542.53;5012341;28;20112;-81
2023/02/11 11:12:47;;;;;;;49.10;25.67;;;;;;;9.43;72.72;101544.22;5008076;28;19929;-80
2023/02/11 11:15:15;;;;;;;47.55;25.42;;;;;;;9.47;72.23;101536.25;5000594;28;20046;-81
2023/02/11 11:17:41;;;;;;;53.20;26.42;;;;;;;9.48;72.46;101526.56;5011538;28;20532;-79
2023/02/11 11:20:34;;;;;;;49.35;26.58;;;;;;;9.45;72.76;101526.63;5012139;28;20050;-80
2023/02/11 11:23:15;;;;;;;42.28;26.23;;;;;;;9.48;72.75;101522.19;5011766;28;20053;-80
2023/02/11 11:25:45;;;;;;;49.72;26.95;;;;;;;9.52;72.36;101512.47;5012181;28;20092;-81
2023/02/11 11:28:30;;;;;;;51.30;28.33;;;;;;;9.51;72.79;101519.50;5011777;28;20430;-80
2023/02/11 11:30:59;;;;;;;49.92;26.75;;;;;;;9.55;72.10;101525.53;5004910;28;20128;-81
2023/02/11 11:33:29;;;;;;;58.75;28.40;;;;;;;9.55;72.39;101525.53;5010882;28;20554;-80
2023/02/11 11:36:08;;;;;;;49.20;27.73;;;;;;;9.55;72.39;101527.28;5011108;28;20108;-79
2023/02/11 11:38:44;;;;;;;54.97;27.80;;;;;;;9.56;72.50;101524.63;5010803;28;20065;-80
2023/02/11 11:41:29;;;;;;;51.90;28.67;;;;;;;9.57;72.63;101523.72;5011043;28;20062;-80